Time;durP1;ratioP1;P1;durP2;ratioP2;P2;SDS_P1;SDS_P2;PMS_P1;PMS_P2;Temp;Humidity;BMP_temperature;BMP_pressure;BME280_temperature;BME280_humidity;BME280_pressure;Samples;Min_cycle;Max_cycle;Signal;HPM_P1;HPM_P2
2022/11/12 00:00:07;;;;;;;;;;;;;;;;;;5073037;28;19974;-59
2022/11/12 00:02:34;;;;;;;;;;;;;;;;;;5077161;28;19985;-58
2022/11/12 00:05:00;;;;;;;;;;;;;;;;;;5073348;28;19925;-57
2022/11/12 00:07:27;;;;;;;;;;;;;;;;;;5091257;28;19928;-59
2022/11/12 00:09:58;;;;;;;;;;;;;;;;;;5091149;28;19924;-57
2022/11/12 00:12:25;;;;;;;;;;;;;;;;;;5082124;28;19980;-59
2022/11/12 00:14:51;;;;;;;;;;;;;;;;;;5093647;28;19928;-58
2022/11/12 00:17:19;;;;;;;;;;;;;;;;;;5077178;28;19928;-59
2022/11/12 00:19:46;;;;;;;;;;;;;;;;;;5081302;28;19969;-58
2022/11/12 00:22:12;;;;;;;;;;;;;;;;;;5078552;28;20381;-59
2022/11/12 00:24:39;;;;;;;;;;;;;;;;;;5072631;28;19974;-58
2022/11/12 00:27:05;;;;;;;;;;;;;;;;;;5085713;28;19928;-53
2022/11/12 00:29:32;;;;;;;;;;;;;;;;;;5092869;28;19924;-55
2022/11/12 00:31:59;;;;;;;;;;;;;;;;;;5080854;28;19924;-56
2022/11/12 00:34:26;;;;;;;;;;;;;;;;;;5072689;28;19928;-58
2022/11/12 00:36:53;;;;;;;;;;;;;;;;;;5082486;28;20461;-59
2022/11/12 00:39:20;;;;;;;;;;;;;;;;;;5092725;28;19932;-57
2022/11/12 00:41:46;;;;;;;;;;;;;;;;;;5073217;28;19928;-60
2022/11/12 00:44:13;;;;;;;;;;;;;;;;;;5072617;28;19929;-58
2022/11/12 00:46:39;;;;;;;;;;;;;;;;;;5088317;28;19931;-58
2022/11/12 00:49:06;;;;;;;;;;;;;;;;;;5092570;28;19969;-58
2022/11/12 00:51:34;;;;;;;;;;;;;;;;;;5075740;28;19925;-59
2022/11/12 00:54:01;;;;;;;;;;;;;;;;;;5072826;28;20381;-56
2022/11/12 00:56:27;;;;;;;;;;;;;;;;;;5087286;28;19928;-58
2022/11/12 00:58:54;;;;;;;;;;;;;;;;;;5092697;28;19924;-57
2022/11/12 01:01:21;;;;;;;;;;;;;;;;;;5078455;28;20300;-58
2022/11/12 01:03:47;;;;;;;;;;;;;;;;;;5081164;28;19963;-58
2022/11/12 01:06:15;;;;;;;;;;;;;;;;;;5091668;28;19924;-56
2022/11/12 01:08:43;;;;;;;;;;;;;;;;;;5088861;28;19970;-58
2022/11/12 01:11:11;;;;;;;;;;;;;;;;;;5081062;28;19924;-57
2022/11/12 01:13:37;;;;;;;;;;;;;;;;;;5072302;28;19924;-54
2022/11/12 01:16:07;;;;;;;;;;;;;;;;;;5082579;28;19927;-55
2022/11/12 01:18:34;;;;;;;;;;;;;;;;;;5098953;28;19969;-57
2022/11/12 01:21:01;;;;;;;;;;;;;;;;;;5088684;28;20019;-57
2022/11/12 01:23:28;;;;;;;;;;;;;;;;;;5079116;28;19924;-58
2022/11/12 01:25:56;;;;;;;;;;;;;;;;;;5085880;28;19924;-58
2022/11/12 01:28:22;;;;;;;;;;;;;;;;;;5099159;28;19974;-58
2022/11/12 01:30:49;;;;;;;;;;;;;;;;;;5098001;28;19928;-58
2022/11/12 01:33:15;;;;;;;;;;;;;;;;;;5099137;28;19928;-58
2022/11/12 01:35:42;;;;;;;;;;;;;;;;;;5081282;28;20304;-58
2022/11/12 01:38:09;;;;;;;;;;;;;;;;;;5078899;28;19924;-58
2022/11/12 01:40:35;;;;;;;;;;;;;;;;;;5095731;28;19928;-58
2022/11/12 01:43:03;;;;;;;;;;;;;;;;;;5099317;28;19924;-58
2022/11/12 01:45:30;;;;;;;;;;;;;;;;;;5082492;28;20010;-58
2022/11/12 01:47:56;;;;;;;;;;;;;;;;;;5078376;28;19924;-57
2022/11/12 01:50:26;;;;;;;;;;;;;;;;;;5092931;28;20277;-60
2022/11/12 01:52:55;;;;;;;;;;;;;;;;;;5099011;28;20377;-58
2022/11/12 01:55:23;;;;;;;;;;;;;;;;;;5089182;28;20160;-57
2022/11/12 01:57:52;;;;;;;;;;;;;;;;;;5078583;28;19978;-58
2022/11/12 02:00:20;;;;;;;;;;;;;;;;;;5090722;28;19924;-58
2022/11/12 02:02:49;;;;;;;;;;;;;;;;;;5080565;28;19933;-59
2022/11/12 02:05:17;;;;;;;;;;;;;;;;;;5098090;28;19981;-52
2022/11/12 02:07:44;;;;;;;;;;;;;;;;;;5098530;28;19924;-57
2022/11/12 02:10:11;;;;;;;;;;;;;;;;;;5087597;28;19925;-54
2022/11/12 02:15:23;;;;;;;;;;;;;;;;;;5089714;28;19930;-58
2022/11/12 02:17:50;;;;;;;;;;;;;;;;;;5098701;28;19969;-57
2022/11/12 02:20:16;;;;;;;;;;;;;;;;;;5087842;28;19932;-56
2022/11/12 02:22:44;;;;;;;;;;;;;;;;;;5078376;28;19970;-57
2022/11/12 02:25:12;;;;;;;;;;;;;;;;;;5085289;28;19924;-58
2022/11/12 02:27:39;;;;;;;;;;;;;;;;;;5095259;28;19977;-56
2022/11/12 02:30:06;;;;;;;;;;;;;;;;;;5074819;28;20109;-57
2022/11/12 02:32:33;;;;;;;;;;;;;;;;;;5075018;28;19925;-55
2022/11/12 02:34:59;;;;;;;;;;;;;;;;;;5105287;22;19924;-49
2022/11/12 02:37:26;;;;;;;;;;;;;;;;;;5097485;28;19924;-53
2022/11/12 02:39:54;;;;;;;;;;;;;;;;;;5078478;28;20292;-50
2022/11/12 02:42:20;;;;;;;;;;;;;;;;;;5076031;28;19924;-51
2022/11/12 02:44:47;;;;;;;;;;;;;;;;;;5076496;28;19925;-50
2022/11/12 02:47:13;;;;;;;;;;;;;;;;;;5076364;28;20404;-51
2022/11/12 02:49:40;;;;;;;;;;;;;;;;;;5076425;28;19928;-53
2022/11/12 02:52:06;;;;;;;;;;;;;;;;;;5076132;28;19924;-52
2022/11/12 02:54:33;;;;;;;;;;;;;;;;;;5075914;28;20377;-51
2022/11/12 02:57:01;;;;;;;;;;;;;;;;;;5076516;28;19928;-51
2022/11/12 02:59:27;;;;;;;;;;;;;;;;;;5075933;28;19924;-52
2022/11/12 03:01:54;;;;;;;;;;;;;;;;;;5076320;28;20427;-51
2022/11/12 03:04:20;;;;;;;;;;;;;;;;;;5076270;28;19931;-51
2022/11/12 03:06:47;;;;;;;;;;;;;;;;;;5076446;28;19924;-50
2022/11/12 03:09:14;;;;;;;;;;;;;;;;;;5076485;28;19928;-50
2022/11/12 03:11:40;;;;;;;;;;;;;;;;;;5076403;28;19974;-52
2022/11/12 03:14:08;;;;;;;;;;;;;;;;;;5076178;28;19928;-52
2022/11/12 03:16:35;;;;;;;;;;;;;;;;;;5075596;28;19946;-51
2022/11/12 03:19:01;;;;;;;;;;;;;;;;;;5076108;28;19924;-51
2022/11/12 03:21:28;;;;;;;;;;;;;;;;;;5075510;28;19970;-51
2022/11/12 03:23:54;;;;;;;;;;;;;;;;;;5076115;28;19928;-53
2022/11/12 03:26:21;;;;;;;;;;;;;;;;;;5076126;28;20335;-50
2022/11/12 03:28:47;;;;;;;;;;;;;;;;;;5075640;28;19946;-53
2022/11/12 03:31:15;;;;;;;;;;;;;;;;;;5075292;28;19970;-54
2022/11/12 03:33:42;;;;;;;;;;;;;;;;;;5075237;28;20344;-49
2022/11/12 03:36:09;;;;;;;;;;;;;;;;;;5075378;28;19924;-51
2022/11/12 03:38:35;;;;;;;;;;;;;;;;;;5075114;28;20339;-51
2022/11/12 03:41:02;;;;;;;;;;;;;;;;;;5075376;28;20349;-51
2022/11/12 03:43:28;;;;;;;;;;;;;;;;;;5074375;28;19931;-54
2022/11/12 03:45:55;;;;;;;;;;;;;;;;;;5074060;28;19925;-55
2022/11/12 03:48:23;;;;;;;;;;;;;;;;;;5073450;28;19951;-54
2022/11/12 03:50:49;;;;;;;;;;;;;;;;;;5073165;28;20297;-52
2022/11/12 03:53:16;;;;;;;;;;;;;;;;;;5073099;28;20385;-53
2022/11/12 03:55:42;;;;;;;;;;;;;;;;;;5073506;28;19970;-49
2022/11/12 03:58:09;;;;;;;;;;;;;;;;;;5073004;28;19928;-53
2022/11/12 04:00:36;;;;;;;;;;;;;;;;;;5073287;28;20046;-53
2022/11/12 04:03:02;;;;;;;;;;;;;;;;;;5070628;28;20431;-53
2022/11/12 04:10:59;;;;;;;;;;;;;;;;;;5073009;28;20425;-54
2022/11/12 04:13:27;;;;;;;;;;;;;;;;;;5072690;28;19924;-49
2022/11/12 04:24:04;;;;;;;;;;;;;;;;;;5072517;28;19951;-55
2022/11/12 04:26:29;;;;;;;;;;;;;;;;;;5072610;28;19969;-55
2022/11/12 04:31:40;;;;;;;;;;;;;;;;;;5072681;28;19977;-51
2022/11/12 04:36:48;;;;;;;;;;;;;;;;;;5072303;28;19925;-51
2022/11/12 04:39:15;;;;;;;;;;;;;;;;;;5072917;28;20335;-52
2022/11/12 04:47:09;;;;;;;;;;;;;;;;;;5072164;28;20089;-52
2022/11/12 04:49:35;;;;;;;;;;;;;;;;;;5072496;28;19964;-51
2022/11/12 04:52:06;;;;;;;;;;;;;;;;;;5071981;28;19978;-51
2022/11/12 04:54:33;;;;;;;;;;;;;;;;;;5072790;28;19932;-53
2022/11/12 04:57:00;;;;;;;;;;;;;;;;;;5072365;28;19925;-50
2022/11/12 04:59:26;;;;;;;;;;;;;;;;;;5072201;28;19925;-51
2022/11/12 05:01:53;;;;;;;;;;;;;;;;;;5059491;28;19935;-52
2022/11/12 05:04:20;;;;;;;;;;;;;;;;;;5072297;28;20006;-55
2022/11/12 05:06:53;;;;;;;;;;;;;;;;;;5072046;28;19931;-49
2022/11/12 05:09:22;;;;;;;;;;;;;;;;;;5072214;28;19925;-49
2022/11/12 05:11:48;;;;;;;;;;;;;;;;;;5071720;28;19924;-53
2022/11/12 05:14:15;;;;;;;;;;;;;;;;;;5072095;28;19925;-50
2022/11/12 05:16:42;;;;;;;;;;;;;;;;;;5071837;28;19929;-53
2022/11/12 05:19:08;;;;;;;;;;;;;;;;;;5072070;28;19930;-52
2022/11/12 05:24:19;;;;;;;;;;;;;;;;;;5072382;28;19991;-54
2022/11/12 05:26:47;;;;;;;;;;;;;;;;;;5071231;28;19932;-52
2022/11/12 05:29:13;;;;;;;;;;;;;;;;;;5072098;28;20347;-54
2022/11/12 05:31:40;;;;;;;;;;;;;;;;;;5072056;28;20034;-53
2022/11/12 05:34:06;;;;;;;;;;;;;;;;;;5071578;28;19928;-51
2022/11/12 05:36:33;;;;;;;;;;;;;;;;;;5071767;28;20353;-54
2022/11/12 05:39:00;;;;;;;;;;;;;;;;;;5071106;28;20358;-50
2022/11/12 05:41:27;;;;;;;;;;;;;;;;;;5071827;28;20017;-53
2022/11/12 05:43:55;;;;;;;;;;;;;;;;;;5072007;28;20374;-54
2022/11/12 05:46:26;;;;;;;;;;;;;;;;;;5071180;28;19928;-53
2022/11/12 05:48:53;;;;;;;;;;;;;;;;;;5071470;28;20396;-54
2022/11/12 05:51:19;;;;;;;;;;;;;;;;;;5071819;28;19925;-51
2022/11/12 05:53:46;;;;;;;;;;;;;;;;;;5071136;28;19924;-52
2022/11/12 05:56:12;;;;;;;;;;;;;;;;;;5071961;28;20385;-49
2022/11/12 05:58:39;;;;;;;;;;;;;;;;;;5071824;28;19924;-50
2022/11/12 06:01:07;;;;;;;;;;;;;;;;;;5071304;28;20218;-50
2022/11/12 06:03:34;;;;;;;;;;;;;;;;;;5067247;28;19924;-50
2022/11/12 06:06:00;;;;;;;;;;;;;;;;;;5075439;28;19925;-55
2022/11/12 06:08:27;;;;;;;;;;;;;;;;;;5075207;28;19970;-55
2022/11/12 06:10:54;;;;;;;;;;;;;;;;;;5075348;28;19928;-52
2022/11/12 06:13:21;;;;;;;;;;;;;;;;;;5075073;28;19928;-53
2022/11/12 06:15:47;;;;;;;;;;;;;;;;;;5075711;28;19970;-53
2022/11/12 06:18:15;;;;;;;;;;;;;;;;;;5074221;28;19928;-54
2022/11/12 06:20:42;;;;;;;;;;;;;;;;;;5074987;28;20282;-54
2022/11/12 06:23:08;;;;;;;;;;;;;;;;;;5075389;28;20546;-56
2022/11/12 06:25:35;;;;;;;;;;;;;;;;;;5075019;28;19925;-53
2022/11/12 06:28:02;;;;;;;;;;;;;;;;;;5074938;28;19974;-51
2022/11/12 06:30:28;;;;;;;;;;;;;;;;;;5074935;28;19928;-52
2022/11/12 06:32:55;;;;;;;;;;;;;;;;;;5074887;28;19932;-53
2022/11/12 06:35:23;;;;;;;;;;;;;;;;;;5074911;28;19928;-53
2022/11/12 06:37:50;;;;;;;;;;;;;;;;;;5074691;28;19928;-54
2022/11/12 06:40:16;;;;;;;;;;;;;;;;;;5074730;28;19928;-55
2022/11/12 06:42:43;;;;;;;;;;;;;;;;;;5074466;28;19924;-51
2022/11/12 06:45:10;;;;;;;;;;;;;;;;;;5074731;28;19924;-54
2022/11/12 06:47:36;;;;;;;;;;;;;;;;;;5074390;28;19982;-49
2022/11/12 06:50:03;;;;;;;;;;;;;;;;;;5074174;28;19997;-50
2022/11/12 06:52:31;;;;;;;;;;;;;;;;;;5074394;28;20355;-49
2022/11/12 06:54:58;;;;;;;;;;;;;;;;;;5074301;28;19932;-50
2022/11/12 06:57:24;;;;;;;;;;;;;;;;;;5074540;28;19925;-57
2022/11/12 06:59:51;;;;;;;;;;;;;;;;;;5074030;28;19924;-52
2022/11/12 07:02:17;;;;;;;;;;;;;;;;;;5074646;28;19924;-51
2022/11/12 07:04:44;;;;;;;;;;;;;;;;;;5074279;28;19947;-51
2022/11/12 07:07:10;;;;;;;;;;;;;;;;;;5074573;28;20444;-53
2022/11/12 07:09:38;;;;;;;;;;;;;;;;;;5073650;28;20411;-53
2022/11/12 07:12:05;;;;;;;;;;;;;;;;;;5074169;28;19925;-52
2022/11/12 07:14:32;;;;;;;;;;;;;;;;;;5073419;28;19924;-51
2022/11/12 07:16:58;;;;;;;;;;;;;;;;;;5074102;28;19924;-52
2022/11/12 07:19:25;;;;;;;;;;;;;;;;;;5073660;28;19978;-50
2022/11/12 07:21:51;;;;;;;;;;;;;;;;;;5073674;28;19970;-52
2022/11/12 07:24:18;;;;;;;;;;;;;;;;;;5073719;28;19955;-50
2022/11/12 07:26:46;;;;;;;;;;;;;;;;;;5073658;28;19924;-49
2022/11/12 07:29:12;;;;;;;;;;;;;;;;;;5073309;28;19932;-52
2022/11/12 07:31:39;;;;;;;;;;;;;;;;;;5073470;28;20031;-52
2022/11/12 07:34:05;;;;;;;;;;;;;;;;;;5073555;28;19928;-53
2022/11/12 07:36:32;;;;;;;;;;;;;;;;;;5073502;28;19929;-50
2022/11/12 07:38:59;;;;;;;;;;;;;;;;;;5073482;28;19971;-52
2022/11/12 07:41:25;;;;;;;;;;;;;;;;;;5073392;28;19970;-53
2022/11/12 07:43:53;;;;;;;;;;;;;;;;;;5073485;28;19925;-50
2022/11/12 07:46:21;;;;;;;;;;;;;;;;;;5073231;28;20435;-52
2022/11/12 07:48:48;;;;;;;;;;;;;;;;;;5059359;28;19924;-52
2022/11/12 07:51:15;;;;;;;;;;;;;;;;;;5090183;28;20381;-52
2022/11/12 07:53:42;;;;;;;;;;;;;;;;;;5074568;28;19925;-50
2022/11/12 07:56:10;;;;;;;;;;;;;;;;;;5073134;28;19929;-52
2022/11/12 07:58:36;;;;;;;;;;;;;;;;;;5073023;28;20274;-55
2022/11/12 08:01:11;;;;;;;;;;;;;;;;;;5072467;28;19958;-54
2022/11/12 08:03:38;;;;;;;;;;;;;;;;;;5065708;28;20062;-52
2022/11/12 08:06:04;;;;;;;;;;;;;;;;;;5067421;28;20377;-51
2022/11/12 08:08:31;;;;;;;;;;;;;;;;;;5072762;28;19925;-53
2022/11/12 08:10:58;;;;;;;;;;;;;;;;;;5072278;28;19928;-49
2022/11/12 08:13:25;;;;;;;;;;;;;;;;;;5073150;28;19936;-52
2022/11/12 08:15:51;;;;;;;;;;;;;;;;;;5072722;28;20389;-53
2022/11/12 08:18:19;;;;;;;;;;;;;;;;;;5072671;28;19928;-54
2022/11/12 08:20:46;;;;;;;;;;;;;;;;;;5072251;28;19928;-54
2022/11/12 08:23:12;;;;;;;;;;;;;;;;;;5072727;28;20015;-50
2022/11/12 08:25:39;;;;;;;;;;;;;;;;;;5071948;28;19942;-52
2022/11/12 08:28:05;;;;;;;;;;;;;;;;;;5072561;28;19997;-53
2022/11/12 08:30:32;;;;;;;;;;;;;;;;;;5072589;28;20458;-53
2022/11/12 08:32:59;;;;;;;;;;;;;;;;;;5072945;28;19970;-54
2022/11/12 08:35:28;;;;;;;;;;;;;;;;;;5072186;28;20002;-50
2022/11/12 08:37:57;;;;;;;;;;;;;;;;;;5072216;28;19925;-54
2022/11/12 08:40:24;;;;;;;;;;;;;;;;;;5071471;28;20332;-50
2022/11/12 08:42:56;;;;;;;;;;;;;;;;;;5072441;28;19940;-54
2022/11/12 08:45:23;;;;;;;;;;;;;;;;;;5072495;28;19928;-52
2022/11/12 08:47:49;;;;;;;;;;;;;;;;;;5071885;28;19924;-51
2022/11/12 08:50:16;;;;;;;;;;;;;;;;;;5072125;28;19970;-55
2022/11/12 08:52:44;;;;;;;;;;;;;;;;;;5072314;28;19928;-51
2022/11/12 08:55:10;;;;;;;;;;;;;;;;;;5071724;28;19974;-50
2022/11/12 08:57:39;;;;;;;;;;;;;;;;;;5072454;28;19978;-50
2022/11/12 09:00:06;;;;;;;;;;;;;;;;;;5072312;28;19929;-53
2022/11/12 09:02:32;;;;;;;;;;;;;;;;;;5072449;28;19929;-53
2022/11/12 09:04:59;;;;;;;;;;;;;;;;;;5071649;28;19990;-49
2022/11/12 09:07:26;;;;;;;;;;;;;;;;;;5072039;28;19925;-50
2022/11/12 09:09:53;;;;;;;;;;;;;;;;;;5072166;28;19924;-50
2022/11/12 09:12:20;;;;;;;;;;;;;;;;;;5071879;28;19978;-53
2022/11/12 09:14:46;;;;;;;;;;;;;;;;;;5072155;28;19978;-51
2022/11/12 09:17:13;;;;;;;;;;;;;;;;;;5072198;28;20074;-52
2022/11/12 09:19:40;;;;;;;;;;;;;;;;;;5071521;28;19978;-53
2022/11/12 09:22:06;;;;;;;;;;;;;;;;;;5071792;28;20452;-53
2022/11/12 09:24:33;;;;;;;;;;;;;;;;;;5071646;28;19925;-51
2022/11/12 09:27:01;;;;;;;;;;;;;;;;;;5071996;28;19924;-51
2022/11/12 09:29:33;;;;;;;;;;;;;;;;;;5071566;28;19970;-53
2022/11/12 09:32:00;;;;;;;;;;;;;;;;;;5071482;28;20001;-53
2022/11/12 09:34:27;;;;;;;;;;;;;;;;;;5071655;28;19967;-51
2022/11/12 09:36:55;;;;;;;;;;;;;;;;;;5072001;28;19964;-50
2022/11/12 09:39:21;;;;;;;;;;;;;;;;;;5075968;28;20407;-54
2022/11/12 09:41:48;;;;;;;;;;;;;;;;;;5075695;28;19924;-53
2022/11/12 09:44:17;;;;;;;;;;;;;;;;;;5076045;28;19932;-50
2022/11/12 09:46:43;;;;;;;;;;;;;;;;;;5076018;28;19924;-54
2022/11/12 09:49:14;;;;;;;;;;;;;;;;;;5075530;28;20385;-50
2022/11/12 09:51:47;;;;;;;;;;;;;;;;;;5075784;28;19954;-50
2022/11/12 09:54:19;;;;;;;;;;;;;;;;;;5075804;28;20411;-54
2022/11/12 09:56:47;;;;;;;;;;;;;;;;;;5075550;28;19939;-53
2022/11/12 09:59:13;;;;;;;;;;;;;;;;;;5075236;28;19928;-53
2022/11/12 10:01:45;;;;;;;;;;;;;;;;;;5074922;28;19924;-52
2022/11/12 10:04:23;;;;;;;;;;;;;;;;;;5075493;28;20304;-53
2022/11/12 10:06:54;;;;;;;;;;;;;;;;;;5075500;28;19924;-55
2022/11/12 10:09:24;;;;;;;;;;;;;;;;;;5074424;28;19925;-53
2022/11/12 10:16:41;;;;;;;;;;;;;;;;;;5075195;28;20917;-50
2022/11/12 10:17:50;;;;;;;;;;;;;;;;;;5075004;28;20384;-50
2022/11/12 10:20:19;;;;;;;;;;;;;;;;;;5074549;28;19925;-54
2022/11/12 10:22:58;;;;;;;;;;;;;;;;;;5074782;28;19931;-53
2022/11/12 10:25:26;;;;;;;;;;;;;;;;;;5075301;28;20393;-54
2022/11/12 10:27:55;;;;;;;;;;;;;;;;;;5075085;28;19924;-52
2022/11/12 10:30:22;;;;;;;;;;;;;;;;;;5075094;28;19933;-53
2022/11/12 10:32:51;;;;;;;;;;;;;;;;;;5075019;28;19925;-56
2022/11/12 10:35:18;;;;;;;;;;;;;;;;;;5074675;28;19924;-53
2022/11/12 10:37:47;;;;;;;;;;;;;;;;;;5074128;28;19981;-53
2022/11/12 10:40:32;;;;;;;;;;;;;;;;;;5074987;28;20209;-56
2022/11/12 10:42:59;;;;;;;;;;;;;;;;;;5074709;28;20035;-53
2022/11/12 10:45:26;;;;;;;;;;;;;;;;;;5074465;28;19925;-53
2022/11/12 10:47:54;;;;;;;;;;;;;;;;;;5074392;28;20370;-55
2022/11/12 10:50:21;;;;;;;;;;;;;;;;;;5073615;28;20381;-56
2022/11/12 10:52:59;;;;;;;;;;;;;;;;;;5073964;28;19954;-55
2022/11/12 10:55:26;;;;;;;;;;;;;;;;;;5074521;28;19931;-55
2022/11/12 10:58:20;;;;;;;;;;;;;;;;;;5073991;28;19924;-52
2022/11/12 11:00:54;;;;;;;;;;;;;;;;;;5060835;28;20407;-56
2022/11/12 11:03:23;;;;;;;;;;;;;;;;;;5073229;28;20385;-56
2022/11/12 11:05:51;;;;;;;;;;;;;;;;;;5070821;28;19924;-56
2022/11/12 11:08:31;;;;;;;;;;;;;;;;;;5073735;28;19932;-56
2022/11/12 11:11:13;;;;;;;;;;;;;;;;;;5073893;28;19932;-55
2022/11/12 11:13:41;;;;;;;;;;;;;;;;;;5073656;28;20015;-52
2022/11/12 11:16:09;;;;;;;;;;;;;;;;;;5073886;28;20042;-55
2022/11/12 11:18:38;;;;;;;;;;;;;;;;;;5073687;28;19977;-54
2022/11/12 11:21:08;;;;;;;;;;;;;;;;;;5073777;28;19928;-53
2022/11/12 11:23:40;;;;;;;;;;;;;;;;;;5073682;28;19928;-53
2022/11/12 11:26:13;;;;;;;;;;;;;;;;;;5073886;28;19970;-55
2022/11/12 11:28:44;;;;;;;;;;;;;;;;;;5073211;28;19985;-60
2022/11/12 11:31:17;;;;;;;;;;;;;;;;;;5073932;28;19974;-65
2022/11/12 11:33:48;;;;;;;;;;;;;;;;;;5073660;28;19978;-53
2022/11/12 11:36:21;;;;;;;;;;;;;;;;;;5073589;28;19982;-53
2022/11/12 11:38:53;;;;;;;;;;;;;;;;;;5073558;28;20011;-57
2022/11/12 11:41:30;;;;;;;;;;;;;;;;;;5074402;28;19931;-67
2022/11/12 11:44:05;;;;;;;;;;;;;;;;;;5073570;28;19925;-58
2022/11/12 11:46:40;;;;;;;;;;;;;;;;;;5073794;28;19928;-63
2022/11/12 11:49:22;;;;;;;;;;;;;;;;;;5073442;28;19925;-67
2022/11/12 11:51:53;;;;;;;;;;;;;;;;;;5069881;28;19924;-64
2022/11/12 11:54:32;;;;;;;;;;;;;;;;;;5073119;28;19978;-50
2022/11/12 11:57:00;;;;;;;;;;;;;;;;;;5073011;28;19929;-55
2022/11/12 11:59:33;;;;;;;;;;;;;;;;;;5073179;28;19944;-53
2022/11/12 12:02:07;;;;;;;;;;;;;;;;;;5072951;28;19993;-52
2022/11/12 12:04:45;;;;;;;;;;;;;;;;;;5072846;28;19925;-50
2022/11/12 12:07:19;;;;;;;;;;;;;;;;;;5073543;28;19925;-53
2022/11/12 12:09:48;;;;;;;;;;;;;;;;;;5073077;28;19925;-52
2022/11/12 12:12:22;;;;;;;;;;;;;;;;;;5072467;28;20401;-53
2022/11/12 12:14:52;;;;;;;;;;;;;;;;;;5073029;28;20019;-51
2022/11/12 12:17:26;;;;;;;;;;;;;;;;;;5073172;28;19933;-53
2022/11/12 12:19:57;;;;;;;;;;;;;;;;;;5072495;28;19950;-49
2022/11/12 12:22:30;;;;;;;;;;;;;;;;;;5071967;28;19928;-50
2022/11/12 12:24:57;;;;;;;;;;;;;;;;;;5073005;28;20328;-53
2022/11/12 12:27:27;;;;;;;;;;;;;;;;;;5064883;28;19925;-53
2022/11/12 12:29:55;;;;;;;;;;;;;;;;;;5070978;28;20031;-52
2022/11/12 12:32:25;;;;;;;;;;;;;;;;;;5071857;28;20278;-54
2022/11/12 12:34:53;;;;;;;;;;;;;;;;;;5071180;28;19978;-62
2022/11/12 12:37:22;;;;;;;;;;;;;;;;;;5072704;28;20007;-61
2022/11/12 12:39:52;;;;;;;;;;;;;;;;;;5071959;28;19924;-52
2022/11/12 12:42:22;;;;;;;;;;;;;;;;;;5071441;28;19955;-52
2022/11/12 12:45:03;;;;;;;;;;;;;;;;;;5071851;28;19970;-53
2022/11/12 12:47:31;;;;;;;;;;;;;;;;;;5072226;28;19931;-51
2022/11/12 12:49:59;;;;;;;;;;;;;;;;;;5071683;28;19924;-53
2022/11/12 12:52:25;;;;;;;;;;;;;;;;;;5071721;28;19928;-52
2022/11/12 12:54:58;;;;;;;;;;;;;;;;;;5072127;28;19924;-52
2022/11/12 12:57:31;;;;;;;;;;;;;;;;;;5072030;28;19925;-55
2022/11/12 13:00:17;;;;;;;;;;;;;;;;;;5072025;28;19970;-50
2022/11/12 13:02:43;;;;;;;;;;;;;;;;;;5071806;28;19924;-53
2022/11/12 13:05:23;;;;;;;;;;;;;;;;;;5052187;28;19929;-53
2022/11/12 13:07:50;;;;;;;;;;;;;;;;;;5060342;28;19931;-55
2022/11/12 13:10:45;;;;;;;;;;;;;;;;;;5072262;28;19928;-50
2022/11/12 13:13:24;;;;;;;;;;;;;;;;;;5071486;28;19928;-51
2022/11/12 13:15:52;;;;;;;;;;;;;;;;;;5072517;28;20435;-53
2022/11/12 13:18:34;;;;;;;;;;;;;;;;;;5072405;28;19924;-50
2022/11/12 13:21:09;;;;;;;;;;;;;;;;;;5072020;28;20374;-54
2022/11/12 13:26:51;;;;;;;;;;;;;;;;;;5072133;28;20020;-52
2022/11/12 13:29:19;;;;;;;;;;;;;;;;;;5071794;28;20415;-49
2022/11/12 13:31:45;;;;;;;;;;;;;;;;;;5071893;28;19928;-52
2022/11/12 13:34:12;;;;;;;;;;;;;;;;;;5071426;28;19932;-52
2022/11/12 13:36:40;;;;;;;;;;;;;;;;;;5072069;28;19924;-52
2022/11/12 13:39:15;;;;;;;;;;;;;;;;;;5071907;28;20361;-55
2022/11/12 13:44:27;;;;;;;;;;;;;;;;;;5071501;28;19935;-54
2022/11/12 13:46:54;;;;;;;;;;;;;;;;;;5072090;28;19924;-53
2022/11/12 13:49:21;;;;;;;;;;;;;;;;;;5071573;28;19975;-53
2022/11/12 13:51:51;;;;;;;;;;;;;;;;;;5071665;28;19924;-50
2022/11/12 13:54:31;;;;;;;;;;;;;;;;;;5071326;28;19925;-51
2022/11/12 13:57:12;;;;;;;;;;;;;;;;;;5061072;28;19925;-53
2022/11/12 13:59:40;;;;;;;;;;;;;;;;;;5071831;28;19938;-54
2022/11/12 14:02:15;;;;;;;;;;;;;;;;;;5071564;28;19925;-52
2022/11/12 14:04:42;;;;;;;;;;;;;;;;;;5056242;28;19928;-53
2022/11/12 14:07:14;;;;;;;;;;;;;;;;;;5061781;28;19970;-54
2022/11/12 14:09:45;;;;;;;;;;;;;;;;;;5071476;28;19928;-54
2022/11/12 14:12:33;;;;;;;;;;;;;;;;;;5071485;28;19924;-54
2022/11/12 14:15:20;;;;;;;;;;;;;;;;;;5066096;28;20385;-54
2022/11/12 14:17:49;;;;;;;;;;;;;;;;;;5071273;28;19936;-54
2022/11/12 14:20:23;;;;;;;;;;;;;;;;;;5071798;28;19940;-56
2022/11/12 14:22:50;;;;;;;;;;;;;;;;;;5071194;28;20025;-56
2022/11/12 14:25:18;;;;;;;;;;;;;;;;;;5073516;28;19932;-54
2022/11/12 14:27:46;;;;;;;;;;;;;;;;;;5074886;28;19930;-52
2022/11/12 14:30:18;;;;;;;;;;;;;;;;;;5075022;28;20002;-54
2022/11/12 14:32:45;;;;;;;;;;;;;;;;;;5075078;28;20344;-53
2022/11/12 14:35:32;;;;;;;;;;;;;;;;;;5074939;28;19924;-52
2022/11/12 14:38:03;;;;;;;;;;;;;;;;;;5054552;28;20356;-51
2022/11/12 14:40:30;;;;;;;;;;;;;;;;;;5055895;28;19931;-50
2022/11/12 14:42:57;;;;;;;;;;;;;;;;;;5074497;28;19928;-55
2022/11/12 14:45:25;;;;;;;;;;;;;;;;;;5074900;28;20373;-53
2022/11/12 14:47:53;;;;;;;;;;;;;;;;;;5074620;28;19924;-54
2022/11/12 14:50:21;;;;;;;;;;;;;;;;;;5074290;28;19932;-53
2022/11/12 14:52:49;;;;;;;;;;;;;;;;;;5074546;28;19925;-53
2022/11/12 14:55:17;;;;;;;;;;;;;;;;;;5074599;28;19928;-51
2022/11/12 14:57:43;;;;;;;;;;;;;;;;;;5076449;28;19925;-54
2022/11/12 15:00:17;;;;;;;;;;;;;;;;;;5075082;28;19924;-51
2022/11/12 15:02:46;;;;;;;;;;;;;;;;;;5075530;28;20382;-52
2022/11/12 15:05:13;;;;;;;;;;;;;;;;;;5057355;28;19925;-52
2022/11/12 15:07:51;;;;;;;;;;;;;;;;;;5075295;28;20427;-54
2022/11/12 15:10:32;;;;;;;;;;;;;;;;;;5075194;28;19925;-54
2022/11/12 15:13:03;;;;;;;;;;;;;;;;;;5075183;28;19925;-51
2022/11/12 15:15:30;;;;;;;;;;;;;;;;;;5075293;28;19932;-51
2022/11/12 15:17:58;;;;;;;;;;;;;;;;;;5074498;28;19928;-51
2022/11/12 15:20:25;;;;;;;;;;;;;;;;;;5075047;28;19924;-52
2022/11/12 15:22:52;;;;;;;;;;;;;;;;;;5075348;28;19928;-51
2022/11/12 15:25:21;;;;;;;;;;;;;;;;;;5075150;28;19972;-53
2022/11/12 15:27:47;;;;;;;;;;;;;;;;;;5075961;28;19931;-54
2022/11/12 15:30:16;;;;;;;;;;;;;;;;;;5075535;28;19928;-54
2022/11/12 15:32:43;;;;;;;;;;;;;;;;;;5075348;28;20437;-50
2022/11/12 15:35:21;;;;;;;;;;;;;;;;;;5074614;28;19924;-50
2022/11/12 15:37:47;;;;;;;;;;;;;;;;;;5055114;28;19979;-50
2022/11/12 15:40:17;;;;;;;;;;;;;;;;;;5054755;28;19924;-53
2022/11/12 15:42:44;;;;;;;;;;;;;;;;;;5073395;28;19924;-51
2022/11/12 15:45:13;;;;;;;;;;;;;;;;;;5075135;28;20281;-52
2022/11/12 15:47:40;;;;;;;;;;;;;;;;;;5074989;28;19971;-50
2022/11/12 15:50:14;;;;;;;;;;;;;;;;;;5074809;28;19974;-50
2022/11/12 15:52:42;;;;;;;;;;;;;;;;;;5074785;28;19929;-50
2022/11/12 15:55:09;;;;;;;;;;;;;;;;;;5075171;28;19924;-52
2022/11/12 15:57:38;;;;;;;;;;;;;;;;;;5074714;28;20605;-51
2022/11/12 16:00:06;;;;;;;;;;;;;;;;;;5074406;28;19982;-51
2022/11/12 16:02:33;;;;;;;;;;;;;;;;;;5074994;28;19970;-52
2022/11/12 16:04:59;;;;;;;;;;;;;;;;;;5073947;28;19933;-53
2022/11/12 16:07:26;;;;;;;;;;;;;;;;;;5075238;28;20601;-50
2022/11/12 16:09:54;;;;;;;;;;;;;;;;;;5074694;28;19929;-51
2022/11/12 16:12:20;;;;;;;;;;;;;;;;;;5074717;28;19931;-54
2022/11/12 16:14:47;;;;;;;;;;;;;;;;;;5074862;28;19933;-51
2022/11/12 16:17:15;;;;;;;;;;;;;;;;;;5075501;28;19928;-51
2022/11/12 16:19:42;;;;;;;;;;;;;;;;;;5074953;28;19924;-53
2022/11/12 16:22:12;;;;;;;;;;;;;;;;;;5074717;28;19928;-54
2022/11/12 16:24:39;;;;;;;;;;;;;;;;;;5074969;28;19988;-50
2022/11/12 16:27:07;;;;;;;;;;;;;;;;;;5074428;28;19924;-52
2022/11/12 16:29:34;;;;;;;;;;;;;;;;;;5075088;28;20027;-52
2022/11/12 16:32:00;;;;;;;;;;;;;;;;;;5074725;28;20369;-50
2022/11/12 16:34:28;;;;;;;;;;;;;;;;;;5074378;28;19928;-53
2022/11/12 16:36:55;;;;;;;;;;;;;;;;;;5074929;28;19928;-53
2022/11/12 16:39:21;;;;;;;;;;;;;;;;;;5074918;28;19924;-49
2022/11/12 16:41:48;;;;;;;;;;;;;;;;;;5074554;28;19950;-53
2022/11/12 16:44:15;;;;;;;;;;;;;;;;;;5074234;28;19924;-51
2022/11/12 16:46:42;;;;;;;;;;;;;;;;;;5073673;28;19970;-53
2022/11/12 16:49:11;;;;;;;;;;;;;;;;;;5073720;28;19924;-51
2022/11/12 16:51:38;;;;;;;;;;;;;;;;;;5073823;28;19931;-50
2022/11/12 16:54:05;;;;;;;;;;;;;;;;;;5074536;28;20004;-51
2022/11/12 16:56:31;;;;;;;;;;;;;;;;;;5074086;28;19977;-51
2022/11/12 16:58:58;;;;;;;;;;;;;;;;;;5073850;28;19925;-50
2022/11/12 17:01:27;;;;;;;;;;;;;;;;;;5073716;28;19978;-51
2022/11/12 17:03:55;;;;;;;;;;;;;;;;;;5074127;28;19925;-50
2022/11/12 17:06:22;;;;;;;;;;;;;;;;;;5073855;28;20389;-53
2022/11/12 17:08:48;;;;;;;;;;;;;;;;;;5074143;28;19925;-50
2022/11/12 17:11:15;;;;;;;;;;;;;;;;;;5074253;28;19982;-52
2022/11/12 17:13:42;;;;;;;;;;;;;;;;;;5073693;28;20022;-52
2022/11/12 17:16:09;;;;;;;;;;;;;;;;;;5074087;28;19978;-51
2022/11/12 17:18:38;;;;;;;;;;;;;;;;;;5073418;28;19925;-52
2022/11/12 17:21:08;;;;;;;;;;;;;;;;;;5073138;28;19925;-53
2022/11/12 17:23:35;;;;;;;;;;;;;;;;;;5073300;28;20011;-54
2022/11/12 17:26:02;;;;;;;;;;;;;;;;;;5074171;28;19978;-52
2022/11/12 17:28:29;;;;;;;;;;;;;;;;;;5073866;28;19984;-51
2022/11/12 17:31:02;;;;;;;;;;;;;;;;;;5073585;28;19928;-53
2022/11/12 17:33:29;;;;;;;;;;;;;;;;;;5073491;28;19932;-51